sensor_id;sensor_type;location;lat;lon;timestamp;P1;durP1;ratioP1;P2;durP2;ratioP2
28170;SDS011;15458;53.346;-1.688;2023-08-06T00:01:50;6.88;;;2.88;;
28170;SDS011;15458;53.346;-1.688;2023-08-06T00:04:15;7.72;;;3.05;;
28170;SDS011;15458;53.346;-1.688;2023-08-06T00:06:41;6.03;;;3.00;;
28170;SDS011;15458;53.346;-1.688;2023-08-06T00:09:07;6.43;;;3.00;;
28170;SDS011;15458;53.346;-1.688;2023-08-06T00:11:33;5.68;;;2.85;;
28170;SDS011;15458;53.346;-1.688;2023-08-06T00:13:58;8.18;;;3.58;;
28170;SDS011;15458;53.346;-1.688;2023-08-06T00:16:24;7.10;;;2.80;;
28170;SDS011;15458;53.346;-1.688;2023-08-06T00:18:50;5.38;;;2.92;;
28170;SDS011;15458;53.346;-1.688;2023-08-06T00:21:15;9.82;;;2.90;;
28170;SDS011;15458;53.346;-1.688;2023-08-06T00:23:41;8.65;;;4.22;;
28170;SDS011;15458;53.346;-1.688;2023-08-06T00:26:07;7.47;;;3.10;;
28170;SDS011;15458;53.346;-1.688;2023-08-06T00:28:32;4.25;;;2.83;;
28170;SDS011;15458;53.346;-1.688;2023-08-06T00:30:58;10.30;;;3.38;;
28170;SDS011;15458;53.346;-1.688;2023-08-06T00:33:24;8.23;;;3.15;;
28170;SDS011;15458;53.346;-1.688;2023-08-06T00:35:50;7.35;;;3.33;;
28170;SDS011;15458;53.346;-1.688;2023-08-06T00:38:16;6.43;;;2.72;;
28170;SDS011;15458;53.346;-1.688;2023-08-06T00:40:41;7.93;;;3.33;;
28170;SDS011;15458;53.346;-1.688;2023-08-06T00:43:07;11.00;;;3.22;;
28170;SDS011;15458;53.346;-1.688;2023-08-06T00:45:33;5.80;;;3.60;;
28170;SDS011;15458;53.346;-1.688;2023-08-06T00:48:01;9.20;;;3.42;;
28170;SDS011;15458;53.346;-1.688;2023-08-06T00:50:30;8.25;;;3.17;;
28170;SDS011;15458;53.346;-1.688;2023-08-06T00:52:56;6.82;;;3.13;;
28170;SDS011;15458;53.346;-1.688;2023-08-06T00:55:22;5.90;;;3.05;;
28170;SDS011;15458;53.346;-1.688;2023-08-06T00:57:48;9.23;;;3.63;;
28170;SDS011;15458;53.346;-1.688;2023-08-06T01:00:16;8.65;;;3.42;;
28170;SDS011;15458;53.346;-1.688;2023-08-06T01:02:41;5.82;;;3.45;;
28170;SDS011;15458;53.346;-1.688;2023-08-06T01:05:07;8.73;;;3.38;;
28170;SDS011;15458;53.346;-1.688;2023-08-06T01:07:49;6.00;;;3.05;;
28170;SDS011;15458;53.346;-1.688;2023-08-06T01:13:32;7.80;;;3.08;;
28170;SDS011;15458;53.346;-1.688;2023-08-06T01:16:05;6.22;;;3.58;;
28170;SDS011;15458;53.346;-1.688;2023-08-06T01:18:32;8.23;;;3.17;;
28170;SDS011;15458;53.346;-1.688;2023-08-06T01:20:58;8.80;;;4.15;;
28170;SDS011;15458;53.346;-1.688;2023-08-06T01:23:23;7.22;;;3.30;;
28170;SDS011;15458;53.346;-1.688;2023-08-06T01:26:02;7.32;;;3.30;;
28170;SDS011;15458;53.346;-1.688;2023-08-06T01:28:39;7.13;;;3.13;;
28170;SDS011;15458;53.346;-1.688;2023-08-06T01:31:15;7.90;;;3.30;;
28170;SDS011;15458;53.346;-1.688;2023-08-06T01:33:51;8.68;;;3.72;;
28170;SDS011;15458;53.346;-1.688;2023-08-06T01:36:19;6.60;;;3.05;;
28170;SDS011;15458;53.346;-1.688;2023-08-06T01:38:45;9.52;;;3.75;;
28170;SDS011;15458;53.346;-1.688;2023-08-06T01:41:11;6.65;;;3.28;;
28170;SDS011;15458;53.346;-1.688;2023-08-06T01:43:36;5.63;;;3.17;;
28170;SDS011;15458;53.346;-1.688;2023-08-06T01:46:02;7.45;;;3.28;;
28170;SDS011;15458;53.346;-1.688;2023-08-06T01:48:28;8.55;;;3.28;;
28170;SDS011;15458;53.346;-1.688;2023-08-06T01:50:54;5.28;;;3.20;;
28170;SDS011;15458;53.346;-1.688;2023-08-06T01:53:19;7.93;;;3.17;;
28170;SDS011;15458;53.346;-1.688;2023-08-06T01:55:48;6.25;;;3.17;;
28170;SDS011;15458;53.346;-1.688;2023-08-06T01:58:14;5.97;;;2.80;;
28170;SDS011;15458;53.346;-1.688;2023-08-06T02:00:40;7.82;;;2.97;;
28170;SDS011;15458;53.346;-1.688;2023-08-06T02:03:06;7.90;;;2.95;;
28170;SDS011;15458;53.346;-1.688;2023-08-06T02:05:31;9.50;;;3.13;;
28170;SDS011;15458;53.346;-1.688;2023-08-06T02:07:57;8.70;;;3.28;;
28170;SDS011;15458;53.346;-1.688;2023-08-06T02:10:23;9.70;;;3.35;;
28170;SDS011;15458;53.346;-1.688;2023-08-06T02:12:48;12.50;;;2.95;;
28170;SDS011;15458;53.346;-1.688;2023-08-06T02:15:14;7.60;;;3.15;;
28170;SDS011;15458;53.346;-1.688;2023-08-06T02:17:40;13.98;;;3.30;;
28170;SDS011;15458;53.346;-1.688;2023-08-06T02:20:05;9.20;;;3.03;;
28170;SDS011;15458;53.346;-1.688;2023-08-06T02:22:31;7.03;;;2.80;;
28170;SDS011;15458;53.346;-1.688;2023-08-06T02:24:58;6.97;;;3.45;;
28170;SDS011;15458;53.346;-1.688;2023-08-06T02:27:24;6.30;;;3.03;;
28170;SDS011;15458;53.346;-1.688;2023-08-06T02:29:49;6.82;;;2.80;;
28170;SDS011;15458;53.346;-1.688;2023-08-06T02:32:15;8.57;;;3.63;;
28170;SDS011;15458;53.346;-1.688;2023-08-06T02:34:41;7.15;;;3.28;;
28170;SDS011;15458;53.346;-1.688;2023-08-06T02:37:06;7.93;;;3.25;;
28170;SDS011;15458;53.346;-1.688;2023-08-06T02:39:32;5.20;;;3.20;;
28170;SDS011;15458;53.346;-1.688;2023-08-06T02:41:58;7.80;;;2.97;;
28170;SDS011;15458;53.346;-1.688;2023-08-06T02:44:27;3.85;;;2.72;;
28170;SDS011;15458;53.346;-1.688;2023-08-06T02:46:53;5.40;;;3.03;;
28170;SDS011;15458;53.346;-1.688;2023-08-06T02:49:18;5.25;;;2.75;;
28170;SDS011;15458;53.346;-1.688;2023-08-06T02:51:47;6.13;;;2.80;;
28170;SDS011;15458;53.346;-1.688;2023-08-06T02:54:13;4.93;;;2.85;;
28170;SDS011;15458;53.346;-1.688;2023-08-06T02:56:38;6.82;;;3.00;;
28170;SDS011;15458;53.346;-1.688;2023-08-06T02:59:07;7.55;;;3.80;;
28170;SDS011;15458;53.346;-1.688;2023-08-06T03:01:33;6.63;;;2.70;;
28170;SDS011;15458;53.346;-1.688;2023-08-06T03:03:58;6.07;;;3.00;;
28170;SDS011;15458;53.346;-1.688;2023-08-06T03:06:24;8.18;;;2.80;;
28170;SDS011;15458;53.346;-1.688;2023-08-06T03:08:50;6.05;;;2.80;;
28170;SDS011;15458;53.346;-1.688;2023-08-06T03:11:15;5.10;;;2.58;;
28170;SDS011;15458;53.346;-1.688;2023-08-06T03:13:41;6.82;;;2.72;;
28170;SDS011;15458;53.346;-1.688;2023-08-06T03:16:06;8.90;;;3.58;;
28170;SDS011;15458;53.346;-1.688;2023-08-06T03:18:32;4.13;;;2.70;;
28170;SDS011;15458;53.346;-1.688;2023-08-06T03:20:58;3.55;;;2.22;;
28170;SDS011;15458;53.346;-1.688;2023-08-06T03:23:23;5.25;;;2.70;;
28170;SDS011;15458;53.346;-1.688;2023-08-06T03:25:49;6.43;;;3.15;;
28170;SDS011;15458;53.346;-1.688;2023-08-06T03:28:14;6.57;;;3.08;;
28170;SDS011;15458;53.346;-1.688;2023-08-06T03:30:40;3.55;;;2.60;;
28170;SDS011;15458;53.346;-1.688;2023-08-06T03:33:06;5.97;;;3.40;;
28170;SDS011;15458;53.346;-1.688;2023-08-06T03:35:31;6.85;;;3.20;;
28170;SDS011;15458;53.346;-1.688;2023-08-06T03:37:57;9.25;;;3.53;;
28170;SDS011;15458;53.346;-1.688;2023-08-06T03:40:22;9.00;;;2.70;;
28170;SDS011;15458;53.346;-1.688;2023-08-06T03:42:48;7.65;;;2.92;;
28170;SDS011;15458;53.346;-1.688;2023-08-06T03:45:14;7.32;;;2.95;;
28170;SDS011;15458;53.346;-1.688;2023-08-06T03:47:39;10.13;;;3.42;;
28170;SDS011;15458;53.346;-1.688;2023-08-06T03:50:05;14.30;;;2.97;;
28170;SDS011;15458;53.346;-1.688;2023-08-06T03:52:31;6.28;;;2.75;;
28170;SDS011;15458;53.346;-1.688;2023-08-06T03:54:57;4.50;;;2.85;;
28170;SDS011;15458;53.346;-1.688;2023-08-06T03:57:22;8.45;;;2.95;;
28170;SDS011;15458;53.346;-1.688;2023-08-06T03:59:48;7.95;;;3.15;;
28170;SDS011;15458;53.346;-1.688;2023-08-06T04:02:14;7.03;;;2.90;;
28170;SDS011;15458;53.346;-1.688;2023-08-06T04:04:39;8.63;;;3.55;;
28170;SDS011;15458;53.346;-1.688;2023-08-06T04:07:05;7.43;;;3.15;;
28170;SDS011;15458;53.346;-1.688;2023-08-06T04:09:31;7.32;;;3.00;;
28170;SDS011;15458;53.346;-1.688;2023-08-06T04:11:56;8.48;;;2.80;;
28170;SDS011;15458;53.346;-1.688;2023-08-06T04:14:23;8.15;;;3.50;;
28170;SDS011;15458;53.346;-1.688;2023-08-06T04:16:51;10.52;;;3.40;;
28170;SDS011;15458;53.346;-1.688;2023-08-06T04:19:16;8.13;;;3.47;;
28170;SDS011;15458;53.346;-1.688;2023-08-06T04:21:42;10.75;;;3.67;;
28170;SDS011;15458;53.346;-1.688;2023-08-06T04:24:07;9.05;;;4.30;;
28170;SDS011;15458;53.346;-1.688;2023-08-06T04:26:33;7.28;;;3.50;;
28170;SDS011;15458;53.346;-1.688;2023-08-06T04:28:59;4.72;;;3.33;;
28170;SDS011;15458;53.346;-1.688;2023-08-06T04:31:24;6.75;;;3.70;;
28170;SDS011;15458;53.346;-1.688;2023-08-06T04:33:50;9.55;;;3.60;;
28170;SDS011;15458;53.346;-1.688;2023-08-06T04:36:15;7.32;;;3.88;;
28170;SDS011;15458;53.346;-1.688;2023-08-06T04:38:41;9.73;;;3.60;;
28170;SDS011;15458;53.346;-1.688;2023-08-06T04:41:10;8.80;;;3.55;;
28170;SDS011;15458;53.346;-1.688;2023-08-06T04:43:36;7.30;;;3.47;;
28170;SDS011;15458;53.346;-1.688;2023-08-06T04:46:01;5.50;;;3.38;;
28170;SDS011;15458;53.346;-1.688;2023-08-06T04:48:27;6.07;;;3.47;;
28170;SDS011;15458;53.346;-1.688;2023-08-06T04:50:53;6.25;;;3.42;;
28170;SDS011;15458;53.346;-1.688;2023-08-06T04:53:19;8.93;;;3.20;;
28170;SDS011;15458;53.346;-1.688;2023-08-06T04:55:45;7.25;;;3.78;;
28170;SDS011;15458;53.346;-1.688;2023-08-06T04:58:11;8.00;;;3.53;;
28170;SDS011;15458;53.346;-1.688;2023-08-06T05:00:37;7.63;;;3.92;;
28170;SDS011;15458;53.346;-1.688;2023-08-06T05:03:03;7.90;;;3.88;;
28170;SDS011;15458;53.346;-1.688;2023-08-06T05:05:31;7.35;;;3.63;;
28170;SDS011;15458;53.346;-1.688;2023-08-06T05:07:57;7.65;;;3.75;;
28170;SDS011;15458;53.346;-1.688;2023-08-06T05:10:26;5.50;;;3.72;;
28170;SDS011;15458;53.346;-1.688;2023-08-06T05:12:52;4.93;;;3.33;;
28170;SDS011;15458;53.346;-1.688;2023-08-06T05:15:18;6.97;;;3.05;;
28170;SDS011;15458;53.346;-1.688;2023-08-06T05:17:44;10.13;;;3.38;;
28170;SDS011;15458;53.346;-1.688;2023-08-06T05:20:10;8.32;;;3.63;;
28170;SDS011;15458;53.346;-1.688;2023-08-06T05:22:36;9.07;;;3.88;;
28170;SDS011;15458;53.346;-1.688;2023-08-06T05:25:02;6.65;;;3.28;;
28170;SDS011;15458;53.346;-1.688;2023-08-06T05:27:27;4.68;;;3.20;;
28170;SDS011;15458;53.346;-1.688;2023-08-06T05:29:54;8.27;;;3.38;;
28170;SDS011;15458;53.346;-1.688;2023-08-06T05:32:23;5.32;;;3.13;;
28170;SDS011;15458;53.346;-1.688;2023-08-06T05:34:49;6.43;;;3.42;;
28170;SDS011;15458;53.346;-1.688;2023-08-06T05:37:15;7.15;;;3.22;;
28170;SDS011;15458;53.346;-1.688;2023-08-06T05:39:40;5.50;;;3.13;;
28170;SDS011;15458;53.346;-1.688;2023-08-06T05:42:06;8.10;;;3.30;;
28170;SDS011;15458;53.346;-1.688;2023-08-06T05:44:31;7.57;;;3.35;;
28170;SDS011;15458;53.346;-1.688;2023-08-06T05:46:57;5.53;;;2.90;;
28170;SDS011;15458;53.346;-1.688;2023-08-06T05:49:23;8.15;;;2.83;;
28170;SDS011;15458;53.346;-1.688;2023-08-06T05:51:48;5.63;;;3.25;;
28170;SDS011;15458;53.346;-1.688;2023-08-06T05:54:14;4.03;;;3.03;;
28170;SDS011;15458;53.346;-1.688;2023-08-06T05:56:40;6.32;;;3.10;;
28170;SDS011;15458;53.346;-1.688;2023-08-06T05:59:05;6.10;;;3.28;;
28170;SDS011;15458;53.346;-1.688;2023-08-06T06:01:31;6.72;;;3.20;;
28170;SDS011;15458;53.346;-1.688;2023-08-06T06:03:56;9.43;;;3.15;;
28170;SDS011;15458;53.346;-1.688;2023-08-06T06:06:22;5.78;;;3.00;;
28170;SDS011;15458;53.346;-1.688;2023-08-06T06:08:48;8.95;;;3.75;;
28170;SDS011;15458;53.346;-1.688;2023-08-06T06:11:13;5.45;;;3.13;;
28170;SDS011;15458;53.346;-1.688;2023-08-06T06:13:39;7.93;;;3.25;;
28170;SDS011;15458;53.346;-1.688;2023-08-06T06:16:04;9.13;;;4.20;;
28170;SDS011;15458;53.346;-1.688;2023-08-06T06:18:30;6.60;;;3.45;;
28170;SDS011;15458;53.346;-1.688;2023-08-06T06:20:56;7.60;;;3.75;;
28170;SDS011;15458;53.346;-1.688;2023-08-06T06:23:21;10.88;;;4.43;;
28170;SDS011;15458;53.346;-1.688;2023-08-06T06:25:50;7.18;;;3.55;;
28170;SDS011;15458;53.346;-1.688;2023-08-06T06:28:19;6.75;;;3.45;;
28170;SDS011;15458;53.346;-1.688;2023-08-06T06:30:45;11.68;;;3.75;;
28170;SDS011;15458;53.346;-1.688;2023-08-06T06:33:10;10.35;;;3.78;;
28170;SDS011;15458;53.346;-1.688;2023-08-06T06:35:36;8.10;;;3.92;;
28170;SDS011;15458;53.346;-1.688;2023-08-06T06:38:02;7.78;;;4.15;;
28170;SDS011;15458;53.346;-1.688;2023-08-06T06:40:28;7.10;;;3.97;;
28170;SDS011;15458;53.346;-1.688;2023-08-06T06:42:53;9.23;;;4.13;;
28170;SDS011;15458;53.346;-1.688;2023-08-06T06:45:19;9.60;;;3.65;;
28170;SDS011;15458;53.346;-1.688;2023-08-06T06:47:45;9.95;;;4.22;;
28170;SDS011;15458;53.346;-1.688;2023-08-06T06:50:10;9.50;;;4.35;;
28170;SDS011;15458;53.346;-1.688;2023-08-06T06:52:36;9.23;;;3.65;;
28170;SDS011;15458;53.346;-1.688;2023-08-06T06:55:02;9.93;;;3.92;;
28170;SDS011;15458;53.346;-1.688;2023-08-06T06:57:28;9.05;;;4.38;;
28170;SDS011;15458;53.346;-1.688;2023-08-06T06:59:54;9.65;;;4.45;;
28170;SDS011;15458;53.346;-1.688;2023-08-06T07:02:19;11.93;;;4.20;;
28170;SDS011;15458;53.346;-1.688;2023-08-06T07:04:45;7.63;;;4.43;;
28170;SDS011;15458;53.346;-1.688;2023-08-06T07:07:11;9.45;;;4.38;;
28170;SDS011;15458;53.346;-1.688;2023-08-06T07:09:36;6.40;;;4.30;;
28170;SDS011;15458;53.346;-1.688;2023-08-06T07:12:02;7.50;;;4.85;;
28170;SDS011;15458;53.346;-1.688;2023-08-06T07:14:28;6.63;;;4.38;;
28170;SDS011;15458;53.346;-1.688;2023-08-06T07:16:54;8.13;;;4.18;;
28170;SDS011;15458;53.346;-1.688;2023-08-06T07:19:19;7.72;;;4.45;;
28170;SDS011;15458;53.346;-1.688;2023-08-06T07:21:45;6.03;;;3.88;;
28170;SDS011;15458;53.346;-1.688;2023-08-06T07:24:11;9.00;;;4.18;;
28170;SDS011;15458;53.346;-1.688;2023-08-06T07:26:37;5.95;;;3.97;;
28170;SDS011;15458;53.346;-1.688;2023-08-06T07:29:03;11.45;;;3.83;;
28170;SDS011;15458;53.346;-1.688;2023-08-06T07:31:28;6.53;;;3.50;;
28170;SDS011;15458;53.346;-1.688;2023-08-06T07:33:54;9.52;;;3.83;;
28170;SDS011;15458;53.346;-1.688;2023-08-06T07:36:20;7.85;;;4.18;;
28170;SDS011;15458;53.346;-1.688;2023-08-06T07:38:45;7.50;;;3.30;;
28170;SDS011;15458;53.346;-1.688;2023-08-06T07:41:12;8.23;;;3.13;;
28170;SDS011;15458;53.346;-1.688;2023-08-06T07:43:38;7.78;;;3.10;;
28170;SDS011;15458;53.346;-1.688;2023-08-06T07:46:03;6.50;;;2.78;;
28170;SDS011;15458;53.346;-1.688;2023-08-06T07:48:29;6.25;;;3.03;;
28170;SDS011;15458;53.346;-1.688;2023-08-06T07:50:55;7.25;;;3.25;;
28170;SDS011;15458;53.346;-1.688;2023-08-06T07:53:26;5.57;;;3.30;;
28170;SDS011;15458;53.346;-1.688;2023-08-06T07:55:54;4.47;;;2.65;;
28170;SDS011;15458;53.346;-1.688;2023-08-06T07:58:20;4.88;;;2.80;;
28170;SDS011;15458;53.346;-1.688;2023-08-06T08:00:46;5.43;;;2.58;;
28170;SDS011;15458;53.346;-1.688;2023-08-06T08:03:12;5.07;;;2.53;;
28170;SDS011;15458;53.346;-1.688;2023-08-06T08:05:39;4.97;;;2.20;;
28170;SDS011;15458;53.346;-1.688;2023-08-06T08:08:05;5.22;;;2.08;;
28170;SDS011;15458;53.346;-1.688;2023-08-06T08:10:31;5.10;;;2.40;;
28170;SDS011;15458;53.346;-1.688;2023-08-06T08:12:57;6.40;;;1.92;;
28170;SDS011;15458;53.346;-1.688;2023-08-06T08:15:24;4.55;;;1.80;;
28170;SDS011;15458;53.346;-1.688;2023-08-06T08:17:53;3.67;;;1.97;;
28170;SDS011;15458;53.346;-1.688;2023-08-06T08:20:18;6.15;;;1.75;;
28170;SDS011;15458;53.346;-1.688;2023-08-06T08:22:44;3.80;;;2.13;;
28170;SDS011;15458;53.346;-1.688;2023-08-06T08:25:10;6.13;;;2.42;;
28170;SDS011;15458;53.346;-1.688;2023-08-06T08:27:35;4.07;;;2.47;;
28170;SDS011;15458;53.346;-1.688;2023-08-06T08:30:01;4.93;;;2.38;;
28170;SDS011;15458;53.346;-1.688;2023-08-06T08:32:27;3.80;;;2.20;;
28170;SDS011;15458;53.346;-1.688;2023-08-06T08:34:52;5.78;;;2.30;;
28170;SDS011;15458;53.346;-1.688;2023-08-06T08:37:18;10.82;;;3.00;;
28170;SDS011;15458;53.346;-1.688;2023-08-06T08:39:44;3.90;;;2.15;;
28170;SDS011;15458;53.346;-1.688;2023-08-06T08:42:10;7.45;;;2.00;;
28170;SDS011;15458;53.346;-1.688;2023-08-06T08:44:35;3.67;;;1.98;;
28170;SDS011;15458;53.346;-1.688;2023-08-06T08:47:05;4.97;;;2.35;;
28170;SDS011;15458;53.346;-1.688;2023-08-06T08:49:35;2.97;;;1.88;;
28170;SDS011;15458;53.346;-1.688;2023-08-06T08:52:02;3.28;;;1.80;;
28170;SDS011;15458;53.346;-1.688;2023-08-06T08:54:32;3.25;;;1.63;;
28170;SDS011;15458;53.346;-1.688;2023-08-06T08:56:59;7.78;;;3.00;;
28170;SDS011;15458;53.346;-1.688;2023-08-06T08:59:25;3.38;;;1.70;;
28170;SDS011;15458;53.346;-1.688;2023-08-06T09:01:52;6.13;;;1.85;;
28170;SDS011;15458;53.346;-1.688;2023-08-06T09:04:19;5.82;;;1.98;;
28170;SDS011;15458;53.346;-1.688;2023-08-06T09:06:47;4.82;;;1.75;;
28170;SDS011;15458;53.346;-1.688;2023-08-06T09:09:36;2.75;;;1.77;;
28170;SDS011;15458;53.346;-1.688;2023-08-06T09:12:06;4.05;;;1.95;;
28170;SDS011;15458;53.346;-1.688;2023-08-06T09:14:42;4.22;;;1.90;;
28170;SDS011;15458;53.346;-1.688;2023-08-06T09:17:08;2.15;;;1.50;;
28170;SDS011;15458;53.346;-1.688;2023-08-06T09:19:35;5.93;;;2.30;;
28170;SDS011;15458;53.346;-1.688;2023-08-06T09:22:02;2.03;;;1.40;;
28170;SDS011;15458;53.346;-1.688;2023-08-06T09:24:29;3.95;;;2.33;;
28170;SDS011;15458;53.346;-1.688;2023-08-06T09:26:55;2.30;;;1.58;;
28170;SDS011;15458;53.346;-1.688;2023-08-06T09:29:21;4.65;;;1.90;;
28170;SDS011;15458;53.346;-1.688;2023-08-06T09:31:47;4.43;;;1.63;;
28170;SDS011;15458;53.346;-1.688;2023-08-06T09:34:20;2.30;;;1.63;;
28170;SDS011;15458;53.346;-1.688;2023-08-06T09:36:56;3.88;;;1.65;;
28170;SDS011;15458;53.346;-1.688;2023-08-06T09:39:26;3.08;;;2.15;;
28170;SDS011;15458;53.346;-1.688;2023-08-06T09:42:00;2.55;;;1.70;;
28170;SDS011;15458;53.346;-1.688;2023-08-06T09:44:27;4.10;;;1.90;;
28170;SDS011;15458;53.346;-1.688;2023-08-06T09:46:54;4.43;;;2.03;;
28170;SDS011;15458;53.346;-1.688;2023-08-06T09:51:54;3.42;;;1.90;;
28170;SDS011;15458;53.346;-1.688;2023-08-06T09:54:23;3.60;;;1.92;;
28170;SDS011;15458;53.346;-1.688;2023-08-06T09:56:49;3.20;;;1.58;;
28170;SDS011;15458;53.346;-1.688;2023-08-06T09:59:16;2.67;;;1.75;;
28170;SDS011;15458;53.346;-1.688;2023-08-06T10:01:43;3.85;;;2.00;;
28170;SDS011;15458;53.346;-1.688;2023-08-06T10:04:10;4.78;;;2.08;;
28170;SDS011;15458;53.346;-1.688;2023-08-06T10:06:38;5.20;;;1.98;;
28170;SDS011;15458;53.346;-1.688;2023-08-06T10:09:04;3.95;;;1.92;;
28170;SDS011;15458;53.346;-1.688;2023-08-06T10:11:30;6.97;;;2.10;;
28170;SDS011;15458;53.346;-1.688;2023-08-06T10:14:10;5.45;;;1.80;;
28170;SDS011;15458;53.346;-1.688;2023-08-06T10:16:38;4.22;;;1.90;;
28170;SDS011;15458;53.346;-1.688;2023-08-06T10:19:06;2.42;;;1.70;;
28170;SDS011;15458;53.346;-1.688;2023-08-06T10:21:34;2.13;;;1.50;;
28170;SDS011;15458;53.346;-1.688;2023-08-06T10:24:00;2.55;;;1.58;;
28170;SDS011;15458;53.346;-1.688;2023-08-06T10:26:30;2.10;;;1.75;;
28170;SDS011;15458;53.346;-1.688;2023-08-06T10:28:56;3.67;;;1.60;;
28170;SDS011;15458;53.346;-1.688;2023-08-06T10:34:25;7.15;;;1.88;;
28170;SDS011;15458;53.346;-1.688;2023-08-06T10:37:35;1.80;;;1.27;;
28170;SDS011;15458;53.346;-1.688;2023-08-06T10:40:02;3.10;;;1.40;;
28170;SDS011;15458;53.346;-1.688;2023-08-06T10:42:29;3.40;;;1.60;;
28170;SDS011;15458;53.346;-1.688;2023-08-06T10:45:11;2.60;;;1.27;;
28170;SDS011;15458;53.346;-1.688;2023-08-06T10:47:41;3.22;;;1.25;;
28170;SDS011;15458;53.346;-1.688;2023-08-06T10:50:07;2.65;;;1.40;;
28170;SDS011;15458;53.346;-1.688;2023-08-06T10:52:35;3.10;;;1.38;;
28170;SDS011;15458;53.346;-1.688;2023-08-06T10:55:01;2.08;;;1.23;;
28170;SDS011;15458;53.346;-1.688;2023-08-06T10:57:27;4.00;;;1.33;;
28170;SDS011;15458;53.346;-1.688;2023-08-06T10:59:53;2.10;;;1.40;;
28170;SDS011;15458;53.346;-1.688;2023-08-06T11:02:18;2.67;;;1.52;;
28170;SDS011;15458;53.346;-1.688;2023-08-06T11:04:44;3.03;;;1.65;;
28170;SDS011;15458;53.346;-1.688;2023-08-06T11:07:10;1.95;;;1.75;;
28170;SDS011;15458;53.346;-1.688;2023-08-06T11:09:36;2.50;;;1.60;;
28170;SDS011;15458;53.346;-1.688;2023-08-06T11:12:02;2.00;;;1.30;;
28170;SDS011;15458;53.346;-1.688;2023-08-06T11:14:31;2.08;;;1.58;;
28170;SDS011;15458;53.346;-1.688;2023-08-06T11:16:57;2.75;;;1.45;;
28170;SDS011;15458;53.346;-1.688;2023-08-06T11:19:22;2.58;;;1.60;;
28170;SDS011;15458;53.346;-1.688;2023-08-06T11:21:49;2.55;;;1.23;;
28170;SDS011;15458;53.346;-1.688;2023-08-06T11:24:16;1.83;;;1.40;;
28170;SDS011;15458;53.346;-1.688;2023-08-06T11:26:45;3.38;;;1.55;;
28170;SDS011;15458;53.346;-1.688;2023-08-06T11:29:11;2.25;;;1.30;;
28170;SDS011;15458;53.346;-1.688;2023-08-06T11:31:37;2.35;;;1.30;;
28170;SDS011;15458;53.346;-1.688;2023-08-06T11:34:02;2.42;;;1.45;;
28170;SDS011;15458;53.346;-1.688;2023-08-06T11:36:31;3.35;;;1.48;;
28170;SDS011;15458;53.346;-1.688;2023-08-06T11:39:01;3.38;;;1.80;;
28170;SDS011;15458;53.346;-1.688;2023-08-06T11:41:31;1.93;;;1.50;;
28170;SDS011;15458;53.346;-1.688;2023-08-06T11:44:00;4.38;;;1.38;;
28170;SDS011;15458;53.346;-1.688;2023-08-06T11:46:26;1.90;;;1.50;;
28170;SDS011;15458;53.346;-1.688;2023-08-06T11:48:58;2.97;;;1.35;;
28170;SDS011;15458;53.346;-1.688;2023-08-06T11:51:24;1.95;;;1.40;;
28170;SDS011;15458;53.346;-1.688;2023-08-06T11:53:57;3.58;;;1.40;;
28170;SDS011;15458;53.346;-1.688;2023-08-06T11:56:24;4.30;;;1.52;;
28170;SDS011;15458;53.346;-1.688;2023-08-06T11:58:51;3.60;;;1.45;;
28170;SDS011;15458;53.346;-1.688;2023-08-06T12:01:17;3.63;;;1.55;;
28170;SDS011;15458;53.346;-1.688;2023-08-06T12:03:43;3.33;;;1.50;;
28170;SDS011;15458;53.346;-1.688;2023-08-06T12:06:09;2.70;;;1.45;;
28170;SDS011;15458;53.346;-1.688;2023-08-06T12:08:34;1.98;;;1.30;;
28170;SDS011;15458;53.346;-1.688;2023-08-06T12:11:00;2.35;;;1.60;;
28170;SDS011;15458;53.346;-1.688;2023-08-06T12:13:26;2.15;;;1.40;;
28170;SDS011;15458;53.346;-1.688;2023-08-06T12:15:53;3.78;;;1.40;;
28170;SDS011;15458;53.346;-1.688;2023-08-06T12:18:19;3.17;;;2.10;;
28170;SDS011;15458;53.346;-1.688;2023-08-06T12:20:45;2.05;;;1.38;;
28170;SDS011;15458;53.346;-1.688;2023-08-06T12:23:10;2.38;;;1.20;;
28170;SDS011;15458;53.346;-1.688;2023-08-06T12:25:40;2.28;;;1.25;;
28170;SDS011;15458;53.346;-1.688;2023-08-06T12:28:06;1.75;;;1.30;;
28170;SDS011;15458;53.346;-1.688;2023-08-06T12:30:33;1.77;;;1.10;;
28170;SDS011;15458;53.346;-1.688;2023-08-06T12:32:59;2.50;;;1.15;;
28170;SDS011;15458;53.346;-1.688;2023-08-06T12:35:25;2.17;;;1.10;;
28170;SDS011;15458;53.346;-1.688;2023-08-06T12:37:51;2.13;;;1.10;;
28170;SDS011;15458;53.346;-1.688;2023-08-06T12:40:19;1.58;;;1.02;;
28170;SDS011;15458;53.346;-1.688;2023-08-06T12:42:46;2.83;;;1.00;;
28170;SDS011;15458;53.346;-1.688;2023-08-06T12:45:11;1.50;;;1.20;;
28170;SDS011;15458;53.346;-1.688;2023-08-06T12:47:37;1.35;;;0.98;;
28170;SDS011;15458;53.346;-1.688;2023-08-06T12:50:03;1.33;;;1.00;;
28170;SDS011;15458;53.346;-1.688;2023-08-06T12:52:29;1.27;;;0.95;;
28170;SDS011;15458;53.346;-1.688;2023-08-06T12:54:55;3.03;;;0.77;;
28170;SDS011;15458;53.346;-1.688;2023-08-06T12:57:20;2.25;;;0.80;;
28170;SDS011;15458;53.346;-1.688;2023-08-06T12:59:46;3.28;;;1.25;;
28170;SDS011;15458;53.346;-1.688;2023-08-06T13:02:13;1.40;;;1.00;;
28170;SDS011;15458;53.346;-1.688;2023-08-06T13:04:38;0.95;;;0.80;;
28170;SDS011;15458;53.346;-1.688;2023-08-06T13:07:04;1.85;;;1.00;;
28170;SDS011;15458;53.346;-1.688;2023-08-06T13:09:31;1.92;;;1.20;;
28170;SDS011;15458;53.346;-1.688;2023-08-06T13:11:57;1.08;;;0.93;;
28170;SDS011;15458;53.346;-1.688;2023-08-06T13:14:24;2.17;;;1.20;;
28170;SDS011;15458;53.346;-1.688;2023-08-06T13:16:50;4.70;;;1.25;;
28170;SDS011;15458;53.346;-1.688;2023-08-06T13:19:16;1.75;;;1.20;;
28170;SDS011;15458;53.346;-1.688;2023-08-06T13:24:16;2.70;;;1.10;;
28170;SDS011;15458;53.346;-1.688;2023-08-06T13:26:43;1.70;;;1.10;;
28170;SDS011;15458;53.346;-1.688;2023-08-06T13:29:08;3.15;;;1.30;;
28170;SDS011;15458;53.346;-1.688;2023-08-06T13:31:35;1.05;;;0.88;;
28170;SDS011;15458;53.346;-1.688;2023-08-06T13:34:01;3.13;;;1.40;;
28170;SDS011;15458;53.346;-1.688;2023-08-06T13:36:27;1.50;;;0.98;;
28170;SDS011;15458;53.346;-1.688;2023-08-06T13:38:53;2.33;;;1.13;;
28170;SDS011;15458;53.346;-1.688;2023-08-06T13:41:19;2.15;;;1.15;;
28170;SDS011;15458;53.346;-1.688;2023-08-06T13:43:47;2.90;;;1.02;;
28170;SDS011;15458;53.346;-1.688;2023-08-06T13:46:17;3.35;;;1.05;;
28170;SDS011;15458;53.346;-1.688;2023-08-06T13:48:45;1.10;;;0.90;;
28170;SDS011;15458;53.346;-1.688;2023-08-06T13:51:13;1.35;;;1.10;;
28170;SDS011;15458;53.346;-1.688;2023-08-06T13:53:39;1.60;;;0.95;;
28170;SDS011;15458;53.346;-1.688;2023-08-06T13:56:05;2.38;;;1.40;;
28170;SDS011;15458;53.346;-1.688;2023-08-06T13:58:32;2.00;;;1.17;;
28170;SDS011;15458;53.346;-1.688;2023-08-06T14:00:58;2.45;;;1.17;;
28170;SDS011;15458;53.346;-1.688;2023-08-06T14:03:24;2.33;;;1.23;;
28170;SDS011;15458;53.346;-1.688;2023-08-06T14:05:49;2.55;;;1.35;;
28170;SDS011;15458;53.346;-1.688;2023-08-06T14:08:16;2.88;;;1.20;;
28170;SDS011;15458;53.346;-1.688;2023-08-06T14:10:43;1.75;;;1.02;;
28170;SDS011;15458;53.346;-1.688;2023-08-06T14:13:09;1.65;;;1.15;;
28170;SDS011;15458;53.346;-1.688;2023-08-06T14:15:35;1.83;;;1.20;;
28170;SDS011;15458;53.346;-1.688;2023-08-06T14:18:01;1.90;;;1.40;;
28170;SDS011;15458;53.346;-1.688;2023-08-06T14:20:27;3.88;;;1.48;;
28170;SDS011;15458;53.346;-1.688;2023-08-06T14:22:53;1.92;;;1.40;;
28170;SDS011;15458;53.346;-1.688;2023-08-06T14:25:19;1.63;;;1.30;;
28170;SDS011;15458;53.346;-1.688;2023-08-06T14:27:44;1.92;;;1.00;;
28170;SDS011;15458;53.346;-1.688;2023-08-06T14:30:11;2.72;;;1.55;;
28170;SDS011;15458;53.346;-1.688;2023-08-06T14:32:36;2.08;;;1.25;;
28170;SDS011;15458;53.346;-1.688;2023-08-06T14:35:02;1.15;;;0.82;;
28170;SDS011;15458;53.346;-1.688;2023-08-06T14:37:28;3.05;;;1.13;;
28170;SDS011;15458;53.346;-1.688;2023-08-06T14:39:54;2.58;;;1.23;;
28170;SDS011;15458;53.346;-1.688;2023-08-06T14:42:19;2.10;;;1.45;;